createdAt,value
2022-10-17T07:34:40.601Z,5.18
2022-10-17T07:38:08.040Z,3.85
2022-10-17T07:41:35.512Z,4.97
2022-10-17T07:45:03.006Z,1.25
2022-10-17T07:48:30.480Z,2.28
2022-10-17T07:51:57.935Z,9.23
2022-10-17T07:55:28.447Z,10.52
2022-10-17T08:02:28.601Z,4.88
2022-10-17T08:05:56.223Z,9.13
2022-10-17T08:09:23.712Z,5.55
2022-10-17T08:12:51.181Z,8.68
2022-10-17T08:16:18.618Z,9.10
2022-10-17T08:19:46.093Z,11.32
2022-10-17T08:23:13.548Z,6.95
2022-10-17T08:26:43.490Z,6.30
2022-10-17T08:30:12.120Z,6.35
2022-10-17T08:33:39.774Z,4.93
2022-10-17T08:37:07.278Z,5.07
2022-10-17T08:40:34.770Z,6.07
2022-10-17T08:44:02.239Z,6.25
2022-10-17T08:47:29.802Z,5.78
2022-10-17T08:50:57.401Z,13.57
2022-10-17T08:54:24.877Z,13.20
2022-10-17T08:57:52.486Z,17.42
2022-10-17T09:01:20.029Z,3.57
2022-10-17T09:04:47.488Z,17.50
2022-10-17T09:08:14.995Z,9.07
2022-10-17T09:11:42.493Z,13.70
2022-10-17T09:15:09.979Z,17.67
2022-10-17T09:18:37.480Z,27.23
2022-10-17T09:21:45.102Z,17.98
2022-10-17T09:28:19.748Z,22.80
2022-10-17T09:31:27.391Z,17.27
2022-10-17T09:34:35.038Z,19.98
2022-10-17T09:38:02.483Z,18.42
2022-10-17T09:41:44.710Z,24.10
2022-10-17T09:45:12.676Z,18.90
2022-10-17T09:48:40.267Z,18.90
2022-10-17T09:52:08.064Z,16.63
2022-10-17T09:55:35.539Z,16.45
2022-10-17T09:59:02.984Z,17.00
2022-10-17T10:02:30.869Z,25.27
2022-10-17T10:05:58.577Z,21.23
2022-10-17T10:09:26.009Z,20.90
2022-10-17T10:12:53.491Z,23.60
2022-10-17T10:16:20.954Z,19.33
2022-10-17T10:19:48.402Z,17.15
2022-10-17T10:23:15.881Z,22.85
2022-10-17T10:26:43.338Z,18.27
2022-10-17T10:30:10.777Z,25.58
2022-10-17T10:33:41.450Z,19.10
2022-10-17T10:37:10.514Z,15.75
2022-10-17T10:40:39.818Z,19.52
2022-10-17T10:44:07.358Z,22.37
2022-10-17T10:47:34.827Z,31.05
2022-10-17T10:51:02.290Z,21.30
2022-10-17T10:54:29.838Z,23.00
2022-10-17T10:57:57.338Z,25.53
2022-10-17T11:01:24.788Z,17.65
2022-10-17T11:04:52.278Z,19.52
2022-10-17T11:08:19.744Z,25.05
2022-10-17T11:11:47.378Z,13.05
2022-10-17T11:15:14.849Z,13.77
2022-10-17T11:18:42.347Z,17.67
2022-10-17T11:22:09.817Z,12.83
2022-10-17T11:25:37.274Z,17.50
2022-10-17T11:29:04.775Z,10.38
2022-10-17T11:32:32.839Z,13.25
2022-10-17T11:35:40.653Z,11.63
2022-10-17T11:39:08.168Z,11.90
2022-10-17T11:42:35.617Z,10.03
2022-10-17T11:46:03.053Z,10.98
2022-10-17T11:49:32.107Z,6.93
2022-10-17T11:53:02.124Z,8.68
2022-10-17T11:56:29.799Z,7.78
2022-10-17T11:59:57.272Z,9.63
2022-10-17T12:03:24.746Z,6.30
2022-10-17T12:06:52.199Z,8.63
2022-10-17T12:10:19.648Z,7.47
2022-10-17T12:13:47.080Z,9.88
2022-10-17T12:17:14.986Z,7.80
2022-10-17T12:20:42.514Z,6.50
2022-10-17T12:24:09.944Z,9.03
2022-10-17T12:27:37.444Z,4.38
2022-10-17T12:30:45.147Z,8.13
2022-10-17T12:34:12.567Z,7.85
2022-10-17T12:37:40.031Z,5.05
2022-10-17T12:41:07.518Z,7.80
2022-10-17T12:44:35.101Z,5.03
2022-10-17T12:48:02.591Z,5.27
2022-10-17T12:51:35.830Z,4.33
2022-10-17T12:55:13.469Z,8.23
2022-10-17T12:58:41.180Z,9.20
2022-10-17T17:03:03.761Z,2.50
2022-10-17T17:06:31.254Z,5.18
2022-10-17T17:09:58.823Z,2.90
2022-10-17T17:13:26.340Z,3.25
2022-10-17T17:16:53.835Z,1.97
2022-10-17T17:20:21.335Z,1.90
2022-10-17T17:23:48.818Z,5.78
2022-10-17T17:27:16.304Z,4.83
2022-10-17T17:30:43.726Z,4.85
2022-10-17T17:34:13.154Z,4.70
2022-10-17T17:37:43.186Z,4.15
2022-10-17T17:41:10.623Z,3.72
2022-10-17T17:44:38.103Z,2.45
2022-10-17T17:48:05.571Z,6.25
2022-10-17T17:51:33.036Z,8.02
2022-10-17T17:55:00.566Z,2.78
2022-10-17T17:58:28.052Z,4.20
2022-10-17T18:01:55.526Z,4.90
2022-10-17T19:34:28.824Z,0.40
2022-10-17T19:37:56.312Z,1.05
2022-10-17T19:41:23.747Z,2.33
2022-10-17T19:44:54.598Z,0.40
2022-10-17T19:48:22.060Z,1.25
2022-10-17T19:51:49.543Z,0.82
2022-10-17T19:55:17.029Z,1.17
2022-10-17T19:58:44.476Z,2.05
2022-10-17T20:02:11.977Z,0.43
2022-10-17T20:05:39.424Z,0.75
2022-10-17T20:09:08.791Z,0.90
2022-10-17T20:12:38.553Z,0.40
2022-10-17T20:16:05.988Z,0.75
2022-10-17T20:19:33.459Z,0.22
2022-10-17T20:23:00.952Z,0.60
2022-10-17T20:26:43.606Z,2.60
2022-10-17T20:30:11.104Z,1.08
2022-10-17T20:33:38.556Z,1.23
2022-10-17T20:37:06.138Z,1.10
2022-10-17T20:40:35.436Z,0.73
2022-10-17T20:43:43.448Z,0.70
2022-10-17T20:47:16.202Z,1.65
2022-10-17T20:50:48.637Z,0.93
2022-10-17T20:54:16.081Z,1.45
2022-10-17T20:57:43.573Z,0.60
2022-10-17T21:01:11.072Z,0.50
2022-10-17T21:04:46.397Z,2.23
2022-10-17T21:08:15.388Z,0.93
2022-10-17T21:14:50.018Z,1.90
2022-10-17T21:18:17.478Z,0.85
2022-10-17T21:21:44.921Z,2.22
2022-10-17T21:25:12.421Z,0.73
2022-10-17T21:28:39.914Z,1.27
2022-10-17T21:32:19.503Z,1.85
2022-10-17T21:35:57.211Z,0.43
2022-10-17T21:39:24.712Z,1.17
2022-10-17T21:42:52.248Z,2.30
2022-10-17T21:46:19.731Z,3.60
2022-10-17T21:49:47.342Z,2.63
2022-10-17T21:53:15.135Z,0.77
2022-10-17T21:56:42.613Z,1.95
2022-10-17T22:00:10.056Z,1.15
2022-10-17T22:03:40.186Z,1.25
2022-10-17T22:07:08.906Z,2.85
2022-10-17T22:10:36.376Z,2.63
2022-10-17T22:14:03.848Z,3.13
2022-10-17T22:17:31.607Z,3.35
2022-10-17T22:20:59.263Z,1.33
2022-10-17T22:24:26.736Z,5.05
2022-10-17T22:27:54.203Z,2.00
2022-10-17T22:31:21.640Z,1.38
2022-10-17T22:34:49.105Z,1.85
2022-10-17T22:38:16.586Z,1.65
2022-10-17T22:41:44.052Z,1.08
2022-10-17T22:45:11.566Z,3.30
2022-10-17T22:48:39.012Z,1.50
2022-10-17T22:52:06.502Z,1.83
2022-10-17T22:55:33.955Z,1.08
2022-10-17T22:59:01.408Z,0.38
